KAQW/AQW METAR and TAF weather

Enter ICAO airport designator
Station Type Date Time Source
KAQW METAR 2022/11/30 09:38 UTC NOAA

KAQW 300938Z AUTO 07010G25KT 10SM BKN021 BKN040 02/M02 A3013 RMK AO2 T00221017


Station Type Date Time Source
KAQW Decoded METAR 2022/11/30 09:38 UTC NOAA

N ADAMS HARRIMAN-AND-WEST, MA, United States (KAQW) 42-42N 073-10W 201M
Nov 30, 2022 - 04:38 AM EST / 2022.11.30 0938 UTC
Wind: from the ENE (070 degrees) at 12 MPH (10 KT) gusting to 29 MPH (25 KT):0
Visibility: 10 mile(s):0
Sky conditions: mostly cloudy
Temperature: 36.0 F (2.2 C)
Dew Point: 28.9 F (-1.7 C)
Relative Humidity: 75%
Pressure (altimeter): 30.13 in. Hg (1020 hPa)
ob: KAQW 300938Z AUTO 07010G25KT 10SM BKN021 BKN040 02/M02 A3013 RMK AO2 T00221017
cycle: 9

Station Type Date Time Source
KAQW TAF UTC NOAA

Error!

Example: see airport list